Time;durP1;ratioP1;P1;durP2;ratioP2;P2;SDS_P1;SDS_P2;PMS_P1;PMS_P2;Temp;Humidity;BMP_temperature;BMP_pressure;BME280_temperature;BME280_humidity;BME280_pressure;Samples;Min_cycle;Max_cycle;Signal;HPM_P1;HPM_P2
2022/08/07 00:01:26;;;;;;;20.50;19.27;;;;;;;;;;5022432;28;20415;-84
2022/08/07 00:03:53;;;;;;;20.00;19.00;;;;;;;;;;5021852;28;20797;-84
2022/08/07 00:06:33;;;;;;;20.50;19.40;;;;;;;;;;5019478;28;20530;-84
2022/08/07 00:09:03;;;;;;;21.00;19.90;;;;;;;;;;5019599;28;20448;-85
2022/08/07 00:11:30;;;;;;;20.07;19.07;;;;;;;;;;5020892;28;20454;-85
2022/08/07 00:13:59;;;;;;;20.87;19.77;;;;;;;;;;5022259;28;20460;-84
2022/08/07 00:16:27;;;;;;;20.20;19.10;;;;;;;;;;5020698;28;20450;-84
2022/08/07 00:18:54;;;;;;;20.93;19.73;;;;;;;;;;5019787;28;20446;-85
2022/08/07 00:21:21;;;;;;;21.47;20.37;;;;;;;;;;5017370;28;20861;-83
2022/08/07 00:23:49;;;;;;;20.23;19.10;;;;;;;;;;5018542;28;20442;-82
2022/08/07 00:26:18;;;;;;;20.77;19.77;;;;;;;;;;5016271;28;20831;-83
2022/08/07 00:28:45;;;;;;;20.13;18.83;;;;;;;;;;5015703;28;20493;-83
2022/08/07 00:31:12;;;;;;;20.63;19.33;;;;;;;;;;5016076;28;20439;-83
2022/08/07 00:33:40;;;;;;;21.07;20.00;;;;;;;;;;5018764;28;20456;-83
2022/08/07 00:36:09;;;;;;;21.00;19.90;;;;;;;;;;5015826;28;20443;-84
2022/08/07 00:38:36;;;;;;;20.70;19.70;;;;;;;;;;5016457;28;20927;-84
2022/08/07 00:41:04;;;;;;;20.80;19.80;;;;;;;;;;5014839;28;20453;-83
2022/08/07 00:43:33;;;;;;;21.50;20.40;;;;;;;;;;5016080;28;20458;-84
2022/08/07 00:46:01;;;;;;;20.80;19.80;;;;;;;;;;5017721;28;20467;-83
2022/08/07 00:48:29;;;;;;;21.63;20.33;;;;;;;;;;5018703;28;20468;-83
2022/08/07 00:50:56;;;;;;;21.03;20.03;;;;;;;;;;5016323;28;20446;-83
2022/08/07 00:53:24;;;;;;;20.77;19.67;;;;;;;;;;5017901;28;20449;-82
2022/08/07 00:55:51;;;;;;;22.10;20.80;;;;;;;;;;5017411;28;20455;-84
2022/08/07 00:58:21;;;;;;;21.23;20.13;;;;;;;;;;5016876;28;20910;-84
2022/08/07 01:00:51;;;;;;;21.37;20.33;;;;;;;;;;5017888;28;20937;-84
2022/08/07 01:03:19;;;;;;;21.17;19.97;;;;;;;;;;5017117;28;20438;-81
2022/08/07 01:05:47;;;;;;;22.53;21.13;;;;;;;;;;5017140;28;20421;-83
2022/08/07 01:08:15;;;;;;;20.23;19.23;;;;;;;;;;5017739;28;20437;-84
2022/08/07 01:10:43;;;;;;;20.60;19.50;;;;;;;;;;5017106;28;20451;-84
2022/08/07 01:13:10;;;;;;;21.03;19.93;;;;;;;;;;5015930;28;20459;-82
2022/08/07 01:15:38;;;;;;;20.97;19.87;;;;;;;;;;5017318;28;20914;-83
2022/08/07 01:18:07;;;;;;;21.20;19.77;;;;;;;;;;5016536;28;20403;-83
2022/08/07 01:20:38;;;;;;;21.03;19.93;;;;;;;;;;5016723;28;20461;-84
2022/08/07 01:23:07;;;;;;;21.30;20.20;;;;;;;;;;5015854;28;20931;-83
2022/08/07 01:25:35;;;;;;;21.30;20.20;;;;;;;;;;5016883;28;20420;-83
2022/08/07 01:28:03;;;;;;;20.97;19.77;;;;;;;;;;5016064;28;20476;-83
2022/08/07 01:30:30;;;;;;;20.90;19.90;;;;;;;;;;5025590;28;20809;-83
2022/08/07 01:32:58;;;;;;;20.47;19.47;;;;;;;;;;5022961;28;20809;-83
2022/08/07 01:35:25;;;;;;;21.40;19.97;;;;;;;;;;5016885;28;20508;-84
2022/08/07 01:37:53;;;;;;;21.00;19.90;;;;;;;;;;5016329;28;20522;-83
2022/08/07 01:40:22;;;;;;;21.67;20.00;;;;;;;;;;5015199;28;21004;-83
2022/08/07 01:42:49;;;;;;;22.17;20.80;;;;;;;;;;5016425;28;20448;-83
2022/08/07 01:45:20;;;;;;;20.47;19.17;;;;;;;;;;5015564;28;20439;-83
2022/08/07 01:47:48;;;;;;;20.50;19.30;;;;;;;;;;5018162;28;20692;-83
2022/08/07 01:50:16;;;;;;;20.77;19.57;;;;;;;;;;5014739;28;20492;-83
2022/08/07 01:52:44;;;;;;;21.33;20.23;;;;;;;;;;5014988;28;20454;-84
2022/08/07 01:55:12;;;;;;;21.70;20.30;;;;;;;;;;5014470;28;20474;-83
2022/08/07 01:57:42;;;;;;;21.57;20.00;;;;;;;;;;5014608;28;20499;-82
2022/08/07 02:00:11;;;;;;;20.53;19.43;;;;;;;;;;5014667;28;20444;-84
2022/08/07 02:02:42;;;;;;;21.37;20.07;;;;;;;;;;5014691;28;20494;-84
2022/08/07 02:05:11;;;;;;;20.73;19.63;;;;;;;;;;5015151;28;20421;-82
2022/08/07 02:07:40;;;;;;;20.33;19.43;;;;;;;;;;5014497;28;20414;-84
2022/08/07 02:10:09;;;;;;;20.97;19.77;;;;;;;;;;5013839;28;20485;-83
2022/08/07 02:12:37;;;;;;;20.17;19.07;;;;;;;;;;5014153;28;20411;-84
2022/08/07 02:15:07;;;;;;;20.10;19.10;;;;;;;;;;5014500;28;20416;-84
2022/08/07 02:17:35;;;;;;;21.73;20.27;;;;;;;;;;5015490;28;20404;-83
2022/08/07 02:20:05;;;;;;;20.63;19.63;;;;;;;;;;5014971;28;20437;-84
2022/08/07 02:22:33;;;;;;;22.57;21.07;;;;;;;;;;5014762;28;20437;-84
2022/08/07 02:25:01;;;;;;;20.30;19.30;;;;;;;;;;5014625;28;20404;-84
2022/08/07 02:27:29;;;;;;;20.47;19.27;;;;;;;;;;5014532;28;20834;-84
2022/08/07 02:29:57;;;;;;;22.47;21.27;;;;;;;;;;5014306;28;20477;-84
2022/08/07 02:32:27;;;;;;;20.87;19.73;;;;;;;;;;5014460;28;20418;-83
2022/08/07 02:34:57;;;;;;;20.73;19.63;;;;;;;;;;5013887;28;20479;-84
2022/08/07 02:37:26;;;;;;;20.40;19.37;;;;;;;;;;5014508;28;20408;-84
2022/08/07 02:39:54;;;;;;;21.10;19.90;;;;;;;;;;5014341;28;20416;-84
2022/08/07 02:42:21;;;;;;;21.63;20.37;;;;;;;;;;5014310;28;20441;-84
2022/08/07 02:44:50;;;;;;;20.53;19.53;;;;;;;;;;5014738;28;20790;-83
2022/08/07 02:47:18;;;;;;;21.27;20.10;;;;;;;;;;5015271;28;20446;-84
2022/08/07 02:49:47;;;;;;;20.80;19.70;;;;;;;;;;5013399;28;20495;-84
2022/08/07 02:52:17;;;;;;;20.60;19.50;;;;;;;;;;5013931;28;20437;-83
2022/08/07 02:54:46;;;;;;;20.57;19.47;;;;;;;;;;5015207;28;20477;-83
2022/08/07 02:57:14;;;;;;;23.40;22.10;;;;;;;;;;5014144;28;20453;-84
2022/08/07 02:59:45;;;;;;;21.30;20.10;;;;;;;;;;5014392;28;20424;-83
2022/08/07 03:02:14;;;;;;;21.23;19.93;;;;;;;;;;5015097;28;20449;-83
2022/08/07 03:04:43;;;;;;;20.40;19.40;;;;;;;;;;5015417;28;20950;-83
2022/08/07 03:07:13;;;;;;;21.17;20.10;;;;;;;;;;5015972;28;20886;-84
2022/08/07 03:09:41;;;;;;;22.10;20.90;;;;;;;;;;5014578;28;20501;-83
2022/08/07 03:12:09;;;;;;;21.60;20.50;;;;;;;;;;5015383;28;20454;-84
2022/08/07 03:14:38;;;;;;;20.50;19.50;;;;;;;;;;5014157;28;20868;-83
2022/08/07 03:17:06;;;;;;;21.00;19.80;;;;;;;;;;5014236;28;20525;-84
2022/08/07 03:19:35;;;;;;;21.17;19.97;;;;;;;;;;5014213;28;20477;-83
2022/08/07 03:22:03;;;;;;;21.27;20.10;;;;;;;;;;5014096;28;20503;-84
2022/08/07 03:24:32;;;;;;;22.80;21.40;;;;;;;;;;5017405;28;20445;-83
2022/08/07 03:27:01;;;;;;;22.50;21.13;;;;;;;;;;5017019;28;20491;-83
2022/08/07 03:29:30;;;;;;;22.00;20.70;;;;;;;;;;5017007;28;21037;-84
2022/08/07 03:31:58;;;;;;;21.03;19.83;;;;;;;;;;5016937;28;20403;-83
2022/08/07 03:34:28;;;;;;;21.47;20.27;;;;;;;;;;5016920;28;20788;-83
2022/08/07 03:36:56;;;;;;;20.70;19.57;;;;;;;;;;5017273;28;20440;-84
2022/08/07 03:39:25;;;;;;;21.53;20.33;;;;;;;;;;5017054;28;20460;-84
2022/08/07 03:41:53;;;;;;;21.00;19.90;;;;;;;;;;5016857;28;20452;-83
2022/08/07 03:44:21;;;;;;;20.80;19.70;;;;;;;;;;5016499;28;20440;-82
2022/08/07 03:46:49;;;;;;;22.00;20.50;;;;;;;;;;5015391;28;20453;-84
2022/08/07 03:49:16;;;;;;;21.63;20.33;;;;;;;;;;5016517;28;20485;-83
2022/08/07 03:51:44;;;;;;;21.03;19.93;;;;;;;;;;5016860;28;20433;-84
2022/08/07 03:54:11;;;;;;;20.50;19.40;;;;;;;;;;5016591;28;20483;-84
2022/08/07 03:56:39;;;;;;;20.43;19.23;;;;;;;;;;5016404;28;20950;-84
2022/08/07 03:59:08;;;;;;;20.87;19.77;;;;;;;;;;5016285;28;20416;-84
2022/08/07 04:01:36;;;;;;;20.70;19.53;;;;;;;;;;5016734;28;20458;-84
2022/08/07 04:04:04;;;;;;;20.77;19.77;;;;;;;;;;5016407;28;20427;-83
2022/08/07 04:06:32;;;;;;;20.90;19.80;;;;;;;;;;5015929;28;20419;-83
2022/08/07 04:09:00;;;;;;;22.10;20.83;;;;;;;;;;5016380;28;20436;-84
2022/08/07 04:11:27;;;;;;;22.10;20.80;;;;;;;;;;5016526;28;20539;-87
2022/08/07 04:13:56;;;;;;;21.23;19.93;;;;;;;;;;5017401;28;20406;-91
2022/08/07 04:16:25;;;;;;;21.37;20.17;;;;;;;;;;5017445;28;20806;-92
2022/08/07 04:18:52;;;;;;;21.90;20.80;;;;;;;;;;5017127;28;20473;-83
2022/08/07 04:21:20;;;;;;;22.50;21.20;;;;;;;;;;5015930;28;20439;-82
2022/08/07 04:23:48;;;;;;;22.87;21.57;;;;;;;;;;5016144;28;20433;-84
2022/08/07 04:26:16;;;;;;;21.50;20.30;;;;;;;;;;5016546;28;20469;-91
2022/08/07 04:28:44;;;;;;;22.30;20.97;;;;;;;;;;5018059;28;20460;-91
2022/08/07 04:31:11;;;;;;;21.17;19.97;;;;;;;;;;5015854;28;20491;-92
2022/08/07 04:33:40;;;;;;;20.87;19.77;;;;;;;;;;5016491;28;20934;-92
2022/08/07 04:36:08;;;;;;;20.70;19.60;;;;;;;;;;5016407;28;20448;-92
2022/08/07 04:38:36;;;;;;;21.23;20.07;;;;;;;;;;5016493;28;21019;-91
2022/08/07 04:41:04;;;;;;;21.77;20.53;;;;;;;;;;5016195;28;20423;-91
2022/08/07 04:43:32;;;;;;;21.23;20.00;;;;;;;;;;5016277;28;20427;-91
2022/08/07 04:46:03;;;;;;;20.57;19.47;;;;;;;;;;5016603;28;20445;-91
2022/08/07 04:48:34;;;;;;;20.67;19.50;;;;;;;;;;5016541;28;20437;-91
2022/08/07 04:51:07;;;;;;;20.77;19.57;;;;;;;;;;5016207;28;20566;-91
2022/08/07 04:53:38;;;;;;;21.43;20.13;;;;;;;;;;5016579;28;20464;-91
2022/08/07 04:56:11;;;;;;;21.13;19.93;;;;;;;;;;5016816;28;20481;-91
2022/08/07 04:58:41;;;;;;;21.10;19.70;;;;;;;;;;5034658;28;20414;-91
2022/08/07 05:01:14;;;;;;;21.83;20.33;;;;;;;;;;5036291;28;20447;-92
2022/08/07 05:03:45;;;;;;;21.47;20.17;;;;;;;;;;5035929;28;20937;-91
2022/08/07 05:06:15;;;;;;;21.40;20.20;;;;;;;;;;5036085;28;20448;-91
2022/08/07 05:08:44;;;;;;;21.97;20.80;;;;;;;;;;5036458;28;20427;-91
2022/08/07 05:11:14;;;;;;;22.50;21.20;;;;;;;;;;5035764;28;20491;-91
2022/08/07 05:13:46;;;;;;;21.43;20.27;;;;;;;;;;5036185;28;20410;-91
2022/08/07 05:16:15;;;;;;;22.17;20.97;;;;;;;;;;5035857;28;20414;-92
2022/08/07 05:18:49;;;;;;;23.93;21.77;;;;;;;;;;5036048;28;20444;-92
2022/08/07 05:21:19;;;;;;;21.20;20.10;;;;;;;;;;5036012;28;20424;-92
2022/08/07 05:23:48;;;;;;;23.03;21.63;;;;;;;;;;5035600;28;20897;-92
2022/08/07 05:26:18;;;;;;;22.60;21.40;;;;;;;;;;5035517;28;20440;-91
2022/08/07 05:28:46;;;;;;;22.10;20.60;;;;;;;;;;5035455;28;20441;-91
2022/08/07 05:31:14;;;;;;;22.00;20.73;;;;;;;;;;5034404;28;20483;-92
2022/08/07 05:33:43;;;;;;;21.80;20.50;;;;;;;;;;5035530;28;20788;-92
2022/08/07 05:36:11;;;;;;;21.10;20.00;;;;;;;;;;5035119;28;20512;-91
2022/08/07 05:38:40;;;;;;;22.20;20.80;;;;;;;;;;5035485;28;20432;-92
2022/08/07 05:41:08;;;;;;;21.70;20.30;;;;;;;;;;5035465;28;20443;-92
2022/08/07 05:43:35;;;;;;;22.40;21.10;;;;;;;;;;5035592;28;20440;-91
2022/08/07 05:46:03;;;;;;;21.17;19.90;;;;;;;;;;5034675;28;20448;-92
2022/08/07 05:48:30;;;;;;;22.63;21.33;;;;;;;;;;5035337;28;20437;-91
2022/08/07 05:50:59;;;;;;;22.30;21.10;;;;;;;;;;5035604;28;20480;-92
2022/08/07 05:53:27;;;;;;;21.83;20.53;;;;;;;;;;5034894;28;20960;-92
2022/08/07 05:55:57;;;;;;;21.13;19.90;;;;;;;;;;5034413;28;20449;-91
2022/08/07 05:58:25;;;;;;;20.57;19.40;;;;;;;;;;5035507;28;20911;-92
2022/08/07 06:00:53;;;;;;;20.47;19.27;;;;;;;;;;5036495;28;20465;-91
2022/08/07 06:03:20;;;;;;;20.00;18.80;;;;;;;;;;5035476;28;20418;-91
2022/08/07 06:05:49;;;;;;;19.93;18.83;;;;;;;;;;5047225;28;20448;-92
2022/08/07 06:08:16;;;;;;;21.07;19.87;;;;;;;;;;5042790;28;20455;-92
2022/08/07 06:10:44;;;;;;;20.47;19.33;;;;;;;;;;5035970;28;20861;-92
2022/08/07 06:13:13;;;;;;;20.90;19.80;;;;;;;;;;5035409;28;20452;-91
2022/08/07 06:15:41;;;;;;;22.10;20.53;;;;;;;;;;5035213;28;20440;-90
2022/08/07 06:18:08;;;;;;;21.17;19.97;;;;;;;;;;5035270;28;20430;-92
2022/08/07 06:20:36;;;;;;;21.10;19.70;;;;;;;;;;5035327;28;20422;-92
2022/08/07 06:23:05;;;;;;;20.30;19.03;;;;;;;;;;5034844;28;20474;-91
2022/08/07 06:25:32;;;;;;;20.47;19.27;;;;;;;;;;5034722;28;20441;-91
2022/08/07 06:28:02;;;;;;;19.50;18.47;;;;;;;;;;5035091;28;20471;-91
2022/08/07 06:30:31;;;;;;;20.30;18.90;;;;;;;;;;5035848;28;20467;-92
2022/08/07 06:32:59;;;;;;;20.10;18.90;;;;;;;;;;5035927;28;20460;-92
2022/08/07 06:35:26;;;;;;;21.03;19.83;;;;;;;;;;5037092;28;20450;-92
2022/08/07 06:37:55;;;;;;;20.73;19.53;;;;;;;;;;5037187;28;20476;-91
2022/08/07 06:40:22;;;;;;;21.20;20.10;;;;;;;;;;5035329;28;20503;-83
2022/08/07 06:42:50;;;;;;;24.60;22.00;;;;;;;;;;5032361;28;20419;-83
2022/08/07 06:45:19;;;;;;;21.10;20.00;;;;;;;;;;5033272;28;20445;-82
2022/08/07 06:47:48;;;;;;;21.40;19.90;;;;;;;;;;5032943;28;20821;-82
2022/08/07 06:50:15;;;;;;;20.63;19.63;;;;;;;;;;5033059;28;20490;-83
2022/08/07 06:52:44;;;;;;;21.17;19.97;;;;;;;;;;5033069;28;20463;-83
2022/08/07 06:55:14;;;;;;;20.60;19.60;;;;;;;;;;5033447;28;20805;-83
2022/08/07 06:57:42;;;;;;;20.20;19.00;;;;;;;;;;5036630;28;20441;-82
2022/08/07 07:00:10;;;;;;;20.77;19.63;;;;;;;;;;5037416;28;21015;-82
2022/08/07 07:02:37;;;;;;;20.50;19.30;;;;;;;;;;5036893;28;20432;-82
2022/08/07 07:05:07;;;;;;;21.80;20.60;;;;;;;;;;5038733;28;20927;-82
2022/08/07 07:07:34;;;;;;;21.97;20.70;;;;;;;;;;5033079;28;20919;-81
2022/08/07 07:10:01;;;;;;;21.40;20.00;;;;;;;;;;5035028;28;20419;-82
2022/08/07 07:12:36;;;;;;;21.70;20.60;;;;;;;;;;5037928;28;20415;-82
2022/08/07 07:15:06;;;;;;;22.23;21.03;;;;;;;;;;5036864;28;20411;-82
2022/08/07 07:17:35;;;;;;;22.03;20.83;;;;;;;;;;5039703;28;20448;-82
2022/08/07 07:20:06;;;;;;;20.87;19.77;;;;;;;;;;5037841;28;20443;-82
2022/08/07 07:22:35;;;;;;;21.97;20.77;;;;;;;;;;5037781;28;20407;-83
2022/08/07 07:25:03;;;;;;;22.90;21.50;;;;;;;;;;5036481;28;20455;-82
2022/08/07 07:27:33;;;;;;;21.73;20.57;;;;;;;;;;5036318;28;20975;-82
2022/08/07 07:30:03;;;;;;;21.60;20.30;;;;;;;;;;5036098;28;20443;-82
2022/08/07 07:32:31;;;;;;;21.30;20.30;;;;;;;;;;5036521;28;20790;-81
2022/08/07 07:35:00;;;;;;;21.60;20.50;;;;;;;;;;5036329;28;20532;-81
2022/08/07 07:37:29;;;;;;;20.77;19.77;;;;;;;;;;5036246;28;20917;-80
2022/08/07 07:39:59;;;;;;;22.10;20.90;;;;;;;;;;5036942;28;20442;-80
2022/08/07 07:42:27;;;;;;;22.03;20.93;;;;;;;;;;5036096;28;20433;-80
2022/08/07 07:44:55;;;;;;;20.40;19.40;;;;;;;;;;5037395;28;20421;-80
2022/08/07 07:47:23;;;;;;;20.17;19.17;;;;;;;;;;5039430;28;20438;-81
2022/08/07 07:49:52;;;;;;;20.70;19.70;;;;;;;;;;5040260;28;20411;-80
2022/08/07 07:52:20;;;;;;;21.50;20.50;;;;;;;;;;5040232;28;20463;-80
2022/08/07 07:54:48;;;;;;;20.60;19.60;;;;;;;;;;5036090;28;20434;-80
2022/08/07 07:57:20;;;;;;;22.10;20.80;;;;;;;;;;5036104;28;20955;-79
2022/08/07 07:59:49;;;;;;;20.63;19.63;;;;;;;;;;5037752;28;20430;-85
2022/08/07 08:02:17;;;;;;;21.50;20.30;;;;;;;;;;5036634;28;20446;-85
2022/08/07 08:04:45;;;;;;;21.63;20.43;;;;;;;;;;5036736;28;20413;-85
2022/08/07 08:07:14;;;;;;;21.77;20.67;;;;;;;;;;5040032;28;20432;-86
2022/08/07 08:09:41;;;;;;;21.90;20.80;;;;;;;;;;5038644;28;20795;-87
2022/08/07 08:12:10;;;;;;;22.30;21.20;;;;;;;;;;5038331;28;20819;-89
2022/08/07 08:14:40;;;;;;;21.77;20.67;;;;;;;;;;5038443;28;20464;-87
2022/08/07 08:17:08;;;;;;;21.20;20.10;;;;;;;;;;5039275;28;20412;-88
2022/08/07 08:19:36;;;;;;;21.13;20.03;;;;;;;;;;5038948;28;20449;-87
2022/08/07 08:27:38;;;;;;;20.03;18.93;;;;;;;;;;5038455;28;20853;-88
2022/08/07 08:30:08;;;;;;;19.60;18.60;;;;;;;;;;5037692;28;20854;-84
2022/08/07 08:32:37;;;;;;;20.10;19.00;;;;;;;;;;5036632;28;20480;-82
2022/08/07 08:35:08;;;;;;;20.60;19.40;;;;;;;;;;5037597;28;20444;-96
2022/08/07 08:37:38;;;;;;;21.13;20.13;;;;;;;;;;5036246;28;20440;-84
2022/08/07 08:40:08;;;;;;;20.97;19.97;;;;;;;;;;5038146;28;20428;-89
2022/08/07 08:42:39;;;;;;;21.13;19.93;;;;;;;;;;5037211;28;20472;-86
2022/08/07 08:45:10;;;;;;;20.60;19.60;;;;;;;;;;5037261;28;20445;-86
2022/08/07 08:47:41;;;;;;;20.73;19.73;;;;;;;;;;5038108;28;20456;-86
2022/08/07 08:50:13;;;;;;;21.27;20.17;;;;;;;;;;5036460;28;20912;-87
2022/08/07 08:52:45;;;;;;;21.53;20.40;;;;;;;;;;5036759;28;20525;-86
2022/08/07 08:55:15;;;;;;;20.90;19.80;;;;;;;;;;5039425;28;20460;-86
2022/08/07 08:57:45;;;;;;;20.83;19.63;;;;;;;;;;5038617;28;20453;-86
2022/08/07 09:00:15;;;;;;;20.70;19.60;;;;;;;;;;5037262;28;20537;-87
2022/08/07 09:02:48;;;;;;;20.50;19.30;;;;;;;;;;5038052;28;20441;-86
2022/08/07 09:05:23;;;;;;;20.53;19.43;;;;;;;;;;5036969;28;20496;-86
2022/08/07 09:07:57;;;;;;;21.20;19.90;;;;;;;;;;5036517;28;20438;-86
2022/08/07 09:10:26;;;;;;;21.17;19.97;;;;;;;;;;5037895;28;20434;-87
2022/08/07 09:12:56;;;;;;;20.10;19.00;;;;;;;;;;5036353;28;20493;-87
2022/08/07 09:15:33;;;;;;;20.87;19.77;;;;;;;;;;5037433;28;20419;-87
2022/08/07 09:18:07;;;;;;;21.33;20.20;;;;;;;;;;5037029;28;20462;-86
2022/08/07 09:20:38;;;;;;;20.67;19.57;;;;;;;;;;5037052;28;20412;-86
2022/08/07 09:23:10;;;;;;;21.30;20.10;;;;;;;;;;5038961;28;20408;-87
2022/08/07 09:25:43;;;;;;;20.90;19.70;;;;;;;;;;5037015;28;20454;-86
2022/08/07 09:28:12;;;;;;;21.70;20.40;;;;;;;;;;5037829;28;20486;-87
2022/08/07 09:30:53;;;;;;;21.63;20.43;;;;;;;;;;5038050;28;20447;-87
2022/08/07 09:33:28;;;;;;;21.13;19.93;;;;;;;;;;5039303;28;20454;-87
2022/08/07 09:35:59;;;;;;;21.93;20.73;;;;;;;;;;5037727;28;20452;-87
2022/08/07 09:38:32;;;;;;;21.10;19.90;;;;;;;;;;5041248;28;20470;-85
2022/08/07 09:41:14;;;;;;;22.10;20.80;;;;;;;;;;5149594;27;20548;-87
2022/08/07 09:43:52;;;;;;;22.43;21.10;;;;;;;;;;5114582;28;20450;-85
2022/08/07 09:46:25;;;;;;;22.63;21.43;;;;;;;;;;5117910;28;20461;-85
2022/08/07 09:48:55;;;;;;;22.90;21.60;;;;;;;;;;5111824;28;20460;-85
2022/08/07 09:51:31;;;;;;;22.90;21.60;;;;;;;;;;5115381;28;20978;-85
2022/08/07 09:54:00;;;;;;;22.80;21.40;;;;;;;;;;5113281;28;20792;-86
2022/08/07 09:56:43;;;;;;;23.00;21.70;;;;;;;;;;5114079;28;20458;-87
2022/08/07 09:59:22;;;;;;;21.83;20.73;;;;;;;;;;5115791;28;20473;-86
2022/08/07 10:02:02;;;;;;;21.87;20.47;;;;;;;;;;5118088;28;20521;-86
2022/08/07 10:04:38;;;;;;;20.20;18.90;;;;;;;;;;5117620;28;20439;-84
2022/08/07 10:07:14;;;;;;;21.23;20.13;;;;;;;;;;5117526;28;20522;-85
2022/08/07 10:09:47;;;;;;;21.77;20.13;;;;;;;;;;5117332;28;20410;-86
2022/08/07 10:12:23;;;;;;;22.37;21.00;;;;;;;;;;5122545;28;20410;-86
2022/08/07 10:15:14;;;;;;;22.37;21.17;;;;;;;;;;5116773;28;20476;-86
2022/08/07 10:18:07;;;;;;;22.17;20.97;;;;;;;;;;5102134;28;20462;-86
2022/08/07 10:20:44;;;;;;;22.13;20.93;;;;;;;;;;5117141;28;20545;-86
2022/08/07 10:23:29;;;;;;;21.27;20.17;;;;;;;;;;5115914;28;20898;-86
2022/08/07 10:26:02;;;;;;;22.30;21.10;;;;;;;;;;5116728;28;20419;-86
2022/08/07 10:28:49;;;;;;;22.37;21.27;;;;;;;;;;5118941;28;20428;-85
2022/08/07 10:31:28;;;;;;;21.57;20.37;;;;;;;;;;5117787;28;20459;-86
2022/08/07 10:33:58;;;;;;;23.00;21.80;;;;;;;;;;5117629;28;20507;-85
2022/08/07 10:36:35;;;;;;;24.10;22.80;;;;;;;;;;5117328;28;20418;-85
2022/08/07 10:39:07;;;;;;;22.70;21.50;;;;;;;;;;5114581;28;20491;-85
2022/08/07 10:41:38;;;;;;;22.33;21.13;;;;;;;;;;5117897;28;20458;-85
2022/08/07 10:44:08;;;;;;;22.60;21.30;;;;;;;;;;5115943;28;20443;-85
2022/08/07 10:46:40;;;;;;;22.60;21.33;;;;;;;;;;5115441;28;20426;-85
2022/08/07 10:49:13;;;;;;;23.43;22.13;;;;;;;;;;5115819;28;20452;-86
2022/08/07 10:51:49;;;;;;;21.60;20.33;;;;;;;;;;5105842;28;20545;-91
2022/08/07 10:54:19;;;;;;;22.80;21.50;;;;;;;;;;5100982;28;20450;-86
2022/08/07 10:56:54;;;;;;;22.63;21.30;;;;;;;;;;5100032;28;20464;-86
2022/08/07 10:59:27;;;;;;;22.47;21.23;;;;;;;;;;5098810;28;20482;-85
2022/08/07 11:01:59;;;;;;;22.17;20.97;;;;;;;;;;5100103;28;20435;-85
2022/08/07 11:04:32;;;;;;;22.27;20.97;;;;;;;;;;5097173;28;20884;-84
2022/08/07 11:07:06;;;;;;;22.33;21.03;;;;;;;;;;5098348;28;20453;-86
2022/08/07 11:09:37;;;;;;;22.70;21.50;;;;;;;;;;5098099;28;20423;-86
2022/08/07 11:12:08;;;;;;;21.87;20.63;;;;;;;;;;5097688;28;20444;-84
2022/08/07 11:14:38;;;;;;;21.50;20.30;;;;;;;;;;5097975;28;20438;-85
2022/08/07 11:17:08;;;;;;;22.43;21.13;;;;;;;;;;5096665;28;20415;-85
2022/08/07 11:19:39;;;;;;;21.90;20.70;;;;;;;;;;5096212;28;20519;-85
2022/08/07 11:22:11;;;;;;;21.50;20.30;;;;;;;;;;5096229;28;20407;-85
2022/08/07 11:24:42;;;;;;;23.20;22.00;;;;;;;;;;5096063;28;20453;-85
2022/08/07 11:27:12;;;;;;;22.53;21.27;;;;;;;;;;5097049;28;20419;-84
2022/08/07 11:29:42;;;;;;;22.67;21.37;;;;;;;;;;5096468;28;20465;-84
2022/08/07 11:32:12;;;;;;;22.30;20.60;;;;;;;;;;5097643;28;20568;-84
2022/08/07 11:34:43;;;;;;;21.20;20.00;;;;;;;;;;5098517;28;20421;-85
2022/08/07 11:37:16;;;;;;;21.97;20.67;;;;;;;;;;5097416;28;20528;-84
2022/08/07 11:39:54;;;;;;;21.57;20.17;;;;;;;;;;5095347;28;20480;-85
2022/08/07 11:42:24;;;;;;;21.50;20.20;;;;;;;;;;5095605;28;20414;-84
2022/08/07 11:44:55;;;;;;;22.47;21.10;;;;;;;;;;5095255;28;20422;-84
2022/08/07 11:47:27;;;;;;;22.63;21.33;;;;;;;;;;5095483;28;20444;-84
2022/08/07 11:50:02;;;;;;;22.80;21.50;;;;;;;;;;5096607;28;20428;-85
2022/08/07 11:52:49;;;;;;;22.77;21.47;;;;;;;;;;5104847;28;20438;-85
2022/08/07 11:55:25;;;;;;;23.10;21.80;;;;;;;;;;5098823;28;20419;-84
2022/08/07 11:57:54;;;;;;;24.30;22.90;;;;;;;;;;5095069;28;20513;-85
2022/08/07 12:00:26;;;;;;;23.40;22.00;;;;;;;;;;5095657;28;20451;-87
2022/08/07 12:03:21;;;;;;;22.30;21.10;;;;;;;;;;5095284;28;20456;-84
2022/08/07 12:05:56;;;;;;;21.70;20.50;;;;;;;;;;5095344;28;20436;-83
2022/08/07 12:08:27;;;;;;;22.57;21.27;;;;;;;;;;5095903;28;20433;-83
2022/08/07 12:10:56;;;;;;;21.57;20.27;;;;;;;;;;5094944;28;20805;-84
2022/08/07 12:13:26;;;;;;;23.13;21.60;;;;;;;;;;5094875;28;20863;-84
2022/08/07 12:15:56;;;;;;;22.53;21.23;;;;;;;;;;5094822;28;20798;-84
2022/08/07 12:18:26;;;;;;;22.60;21.10;;;;;;;;;;5094456;28;20493;-84
2022/08/07 12:20:58;;;;;;;22.40;21.20;;;;;;;;;;5094298;28;20492;-85
2022/08/07 12:23:45;;;;;;;22.03;20.63;;;;;;;;;;5095117;28;20441;-90
2022/08/07 12:26:16;;;;;;;22.33;20.93;;;;;;;;;;5094969;28;20847;-86
2022/08/07 12:28:48;;;;;;;22.30;21.00;;;;;;;;;;5094870;28;20415;-85
2022/08/07 12:31:18;;;;;;;22.20;20.77;;;;;;;;;;5095186;28;20440;-86
2022/08/07 12:33:46;;;;;;;21.93;20.73;;;;;;;;;;5094920;28;20407;-86
2022/08/07 12:36:14;;;;;;;22.07;20.77;;;;;;;;;;5094948;28;20510;-87
2022/08/07 12:38:44;;;;;;;21.93;20.73;;;;;;;;;;5094784;28;20407;-85
2022/08/07 12:41:12;;;;;;;22.50;21.30;;;;;;;;;;5094868;28;20465;-86
2022/08/07 12:43:42;;;;;;;21.43;20.20;;;;;;;;;;5095030;28;20411;-86
2022/08/07 12:46:16;;;;;;;23.07;21.67;;;;;;;;;;5095098;28;20494;-86
2022/08/07 12:48:48;;;;;;;22.50;21.30;;;;;;;;;;5094840;28;20407;-86
2022/08/07 12:51:17;;;;;;;21.90;20.60;;;;;;;;;;5095074;28;20452;-86
2022/08/07 12:53:50;;;;;;;22.43;21.10;;;;;;;;;;5094484;28;20559;-86
2022/08/07 12:56:22;;;;;;;22.97;21.67;;;;;;;;;;5094868;28;20456;-85
2022/08/07 12:58:50;;;;;;;22.00;20.70;;;;;;;;;;5096255;28;20818;-85
2022/08/07 13:01:24;;;;;;;23.20;21.90;;;;;;;;;;5094356;28;20466;-86
2022/08/07 13:04:17;;;;;;;22.57;21.27;;;;;;;;;;5096947;28;20431;-84
2022/08/07 13:07:00;;;;;;;22.70;21.40;;;;;;;;;;5097820;28;20776;-85
2022/08/07 13:09:35;;;;;;;22.50;21.20;;;;;;;;;;5094174;28;20419;-86
2022/08/07 13:12:11;;;;;;;22.67;21.23;;;;;;;;;;5098781;28;20560;-86
2022/08/07 13:14:45;;;;;;;22.70;21.30;;;;;;;;;;5097713;28;20440;-86
2022/08/07 13:17:13;;;;;;;24.07;22.57;;;;;;;;;;5096418;28;20421;-86
2022/08/07 13:19:44;;;;;;;22.17;20.90;;;;;;;;;;5094771;28;20403;-85
2022/08/07 13:22:14;;;;;;;22.37;21.07;;;;;;;;;;5094243;28;20440;-86
2022/08/07 13:24:45;;;;;;;23.33;21.83;;;;;;;;;;5094293;28;20463;-86
2022/08/07 13:27:16;;;;;;;22.40;21.10;;;;;;;;;;5093785;28;20408;-86
2022/08/07 13:29:46;;;;;;;21.57;20.37;;;;;;;;;;5093688;28;20453;-86
2022/08/07 13:32:16;;;;;;;21.97;20.57;;;;;;;;;;5093719;28;20437;-86
2022/08/07 13:34:47;;;;;;;22.57;21.27;;;;;;;;;;5094407;28;20433;-85
2022/08/07 13:37:17;;;;;;;23.60;22.20;;;;;;;;;;5094300;28;20422;-86
2022/08/07 13:39:50;;;;;;;23.37;21.90;;;;;;;;;;5093317;28;20466;-84
2022/08/07 13:42:17;;;;;;;23.87;22.47;;;;;;;;;;5093612;28;20488;-86
2022/08/07 13:44:45;;;;;;;22.97;21.67;;;;;;;;;;5093732;28;20459;-86
2022/08/07 13:47:14;;;;;;;22.77;21.20;;;;;;;;;;5092680;28;20419;-86
2022/08/07 13:49:43;;;;;;;23.17;21.87;;;;;;;;;;5093552;28;20928;-86
2022/08/07 13:52:11;;;;;;;22.77;21.37;;;;;;;;;;5093536;28;20786;-86
2022/08/07 13:54:40;;;;;;;22.70;21.40;;;;;;;;;;5093604;28;20412;-85
2022/08/07 13:57:12;;;;;;;22.93;21.63;;;;;;;;;;5093833;28;20504;-86
2022/08/07 13:59:40;;;;;;;23.50;22.20;;;;;;;;;;5093536;28;20974;-86
2022/08/07 14:02:11;;;;;;;23.63;22.23;;;;;;;;;;5094443;28;20454;-85
2022/08/07 14:04:46;;;;;;;23.63;22.33;;;;;;;;;;5093596;28;20404;-85
2022/08/07 14:07:15;;;;;;;22.53;21.23;;;;;;;;;;5094420;28;20408;-86
2022/08/07 14:09:43;;;;;;;24.37;22.97;;;;;;;;;;5093623;28;20438;-86
2022/08/07 14:12:19;;;;;;;22.53;21.23;;;;;;;;;;5093794;28;20425;-85
2022/08/07 14:14:49;;;;;;;23.60;22.20;;;;;;;;;;5093483;28;20881;-86
2022/08/07 14:17:16;;;;;;;22.73;21.43;;;;;;;;;;5093709;28;20453;-87
2022/08/07 14:19:48;;;;;;;23.93;22.70;;;;;;;;;;5094059;28;20437;-85
2022/08/07 14:22:19;;;;;;;22.90;21.50;;;;;;;;;;5094084;28;20489;-87
2022/08/07 14:24:50;;;;;;;22.80;21.50;;;;;;;;;;5092916;28;20483;-87
2022/08/07 14:27:22;;;;;;;23.23;21.93;;;;;;;;;;5098034;28;20779;-86
2022/08/07 14:29:52;;;;;;;22.37;21.10;;;;;;;;;;5098810;28;20826;-87
2022/08/07 14:32:20;;;;;;;21.73;20.53;;;;;;;;;;5100177;28;20924;-87
2022/08/07 14:34:49;;;;;;;23.37;22.00;;;;;;;;;;5097120;28;20452;-87
2022/08/07 14:37:18;;;;;;;24.23;22.73;;;;;;;;;;5098549;28;20920;-84
2022/08/07 14:39:46;;;;;;;22.50;21.30;;;;;;;;;;5098832;28;20895;-87